Time;durP1;ratioP1;P1;durP2;ratioP2;P2;SDS_P1;SDS_P2;PMS_P1;PMS_P2;Temp;Humidity;BMP_temperature;BMP_pressure;BME280_temperature;BME280_humidity;BME280_pressure;Samples;Min_cycle;Max_cycle;Signal;HPM_P1;HPM_P2
2023/12/08 00:01:08;;;;;;;4.43;4.03;;;16.30;52.40;;;;;;5071244;28;20649;-64
2023/12/08 00:03:33;;;;;;;4.75;4.30;;;16.30;52.30;;;;;;5071452;28;20714;-64
2023/12/08 00:05:59;;;;;;;3.90;3.60;;;16.20;52.30;;;;;;5071750;28;20262;-64
2023/12/08 00:08:24;;;;;;;4.50;4.07;;;16.20;52.30;;;;;;5070771;28;20301;-64
2023/12/08 00:10:50;;;;;;;4.10;3.80;;;16.20;52.30;;;;;;5071776;28;20540;-64
2023/12/08 00:13:15;;;;;;;4.20;3.67;;;16.20;52.30;;;;;;5071305;28;20174;-64
2023/12/08 00:15:41;;;;;;;3.92;3.60;;;16.20;52.30;;;;;;5071227;28;20178;-64
2023/12/08 00:18:07;;;;;;;4.18;3.80;;;16.20;52.40;;;;;;5074371;28;20182;-64
2023/12/08 00:20:32;;;;;;;4.10;3.70;;;16.10;52.30;;;;;;5075761;28;20177;-63
2023/12/08 00:22:58;;;;;;;4.65;3.90;;;16.10;52.40;;;;;;5075116;28;20692;-64
2023/12/08 00:25:23;;;;;;;3.65;3.35;;;16.10;52.40;;;;;;5075498;28;20192;-64
2023/12/08 00:27:49;;;;;;;4.78;3.83;;;16.10;52.30;;;;;;5075354;28;20217;-65
2023/12/08 00:30:15;;;;;;;4.35;3.70;;;16.10;52.30;;;;;;5068014;28;20171;-64
2023/12/08 00:32:40;;;;;;;4.22;3.83;;;16.10;52.40;;;;;;5055690;28;20699;-64
2023/12/08 00:35:07;;;;;;;4.53;4.07;;;16.10;52.40;;;;;;5055719;28;20202;-64
2023/12/08 00:37:32;;;;;;;4.20;3.80;;;16.10;52.40;;;;;;5054575;28;20172;-64
2023/12/08 00:39:58;;;;;;;4.07;3.78;;;16.10;52.40;;;;;;5055407;28;20189;-64
2023/12/08 00:42:24;;;;;;;3.97;3.55;;;16.00;52.30;;;;;;5054915;28;20595;-64
2023/12/08 00:44:49;;;;;;;4.45;4.15;;;16.00;52.30;;;;;;5054923;28;20622;-65
2023/12/08 00:47:15;;;;;;;4.95;4.20;;;16.00;52.40;;;;;;5055033;28;20214;-66
2023/12/08 00:49:40;;;;;;;4.45;3.67;;;16.00;52.30;;;;;;5054852;28;20182;-65
2023/12/08 00:52:06;;;;;;;4.45;4.05;;;16.00;52.30;;;;;;5054947;28;20628;-65
2023/12/08 00:54:31;;;;;;;3.95;3.55;;;16.00;52.30;;;;;;5054753;28;20653;-64
2023/12/08 00:56:57;;;;;;;4.07;3.75;;;16.00;52.30;;;;;;5054305;28;20262;-64
2023/12/08 00:59:22;;;;;;;3.88;3.55;;;16.00;52.40;;;;;;5054673;28;20269;-64
2023/12/08 01:01:48;;;;;;;4.30;3.90;;;16.00;52.30;;;;;;5055146;28;20263;-64
2023/12/08 01:04:13;;;;;;;4.20;3.90;;;16.00;52.30;;;;;;5054287;28;20266;-64
2023/12/08 01:06:39;;;;;;;3.38;3.08;;;15.90;52.30;;;;;;5055040;28;20341;-64
2023/12/08 01:09:04;;;;;;;4.10;3.80;;;15.90;52.30;;;;;;5054921;28;20254;-65
2023/12/08 01:11:30;;;;;;;4.50;4.10;;;15.90;52.30;;;;;;5053809;28;20642;-64
2023/12/08 01:13:55;;;;;;;4.82;4.18;;;15.90;52.30;;;;;;5054906;28;20172;-64
2023/12/08 01:16:21;;;;;;;4.20;3.80;;;15.90;52.50;;;;;;5054636;28;20171;-64
2023/12/08 01:18:46;;;;;;;4.25;3.90;;;15.90;52.30;;;;;;5054158;28;20187;-63
2023/12/08 01:21:12;;;;;;;3.97;3.67;;;15.90;52.40;;;;;;5054886;28;20175;-64
2023/12/08 01:23:37;;;;;;;4.28;3.88;;;15.90;52.30;;;;;;5054432;28;20870;-64
2023/12/08 01:26:06;;;;;;;4.38;3.50;;;15.90;52.30;;;;;;5053602;28;20656;-64
2023/12/08 01:28:32;;;;;;;3.97;3.65;;;15.90;52.40;;;;;;5053452;28;20551;-65
2023/12/08 01:30:57;;;;;;;3.83;3.53;;;15.80;52.30;;;;;;5067043;28;20166;-64
2023/12/08 01:33:23;;;;;;;3.88;3.58;;;15.90;52.40;;;;;;5073669;28;20182;-64
2023/12/08 01:35:48;;;;;;;4.25;3.85;;;15.90;52.40;;;;;;5074576;28;20178;-64
2023/12/08 01:38:17;;;;;;;4.47;4.00;;;15.80;52.30;;;;;;5074091;28;20174;-64
2023/12/08 01:40:42;;;;;;;3.83;3.53;;;15.80;52.30;;;;;;5073514;28;20181;-64
2023/12/08 01:43:14;;;;;;;4.32;4.00;;;15.80;52.40;;;;;;5074196;28;20258;-64
2023/12/08 01:45:39;;;;;;;4.25;3.95;;;15.80;52.30;;;;;;5074311;28;20257;-65
2023/12/08 01:48:05;;;;;;;3.53;3.22;;;15.80;52.30;;;;;;5073569;28;20221;-65
2023/12/08 01:50:31;;;;;;;4.10;3.70;;;15.80;52.30;;;;;;5072561;28;20906;-65
2023/12/08 01:52:57;;;;;;;4.15;3.60;;;15.70;52.30;;;;;;5055426;28;20291;-64
2023/12/08 01:55:22;;;;;;;4.05;3.75;;;15.80;52.30;;;;;;5073695;28;20178;-64
2023/12/08 01:57:48;;;;;;;4.65;4.22;;;15.80;52.30;;;;;;5072888;28;20170;-64
2023/12/08 02:00:14;;;;;;;3.90;3.60;;;15.70;52.20;;;;;;5073193;28;20174;-63
2023/12/08 02:02:39;;;;;;;4.20;3.80;;;15.70;52.20;;;;;;5072677;28;20587;-64
2023/12/08 02:05:05;;;;;;;3.92;3.58;;;15.70;52.30;;;;;;5072657;28;20173;-64
2023/12/08 02:07:31;;;;;;;4.05;3.67;;;15.70;52.30;;;;;;5071584;28;20235;-64
2023/12/08 02:09:57;;;;;;;4.25;3.85;;;15.70;52.30;;;;;;5055858;28;20190;-64
2023/12/08 02:12:22;;;;;;;4.00;3.70;;;15.70;52.30;;;;;;5073274;28;20174;-63
2023/12/08 02:14:50;;;;;;;3.88;3.53;;;15.70;52.30;;;;;;5071938;28;20181;-64
2023/12/08 02:17:18;;;;;;;3.80;3.50;;;15.70;52.40;;;;;;5072108;28;20261;-63
2023/12/08 02:19:44;;;;;;;3.72;3.42;;;15.70;52.30;;;;;;5056261;28;20177;-63
2023/12/08 02:22:09;;;;;;;4.05;3.75;;;15.70;52.30;;;;;;5054950;28;20261;-64
2023/12/08 02:24:35;;;;;;;3.95;3.65;;;15.70;52.40;;;;;;5073125;28;20245;-64
2023/12/08 02:27:00;;;;;;;4.47;4.07;;;15.60;52.30;;;;;;5073533;28;20563;-64
2023/12/08 02:29:29;;;;;;;4.40;4.00;;;15.60;52.30;;;;;;5071154;28;20649;-64
2023/12/08 02:32:07;;;;;;;4.10;3.70;;;15.60;52.30;;;;;;5052299;28;20171;-64
2023/12/08 02:34:33;;;;;;;3.78;3.42;;;15.60;52.30;;;;;;5035918;28;20182;-64
2023/12/08 02:36:58;;;;;;;4.07;3.67;;;15.60;52.30;;;;;;5052713;28;20175;-63
2023/12/08 02:39:27;;;;;;;4.18;3.78;;;15.60;52.30;;;;;;5051874;28;20242;-64
2023/12/08 02:41:53;;;;;;;3.92;3.63;;;15.60;52.40;;;;;;5051810;28;20167;-64
2023/12/08 02:44:18;;;;;;;3.95;3.63;;;15.60;52.40;;;;;;5052260;28;20181;-64
2023/12/08 02:46:44;;;;;;;3.80;3.53;;;15.60;52.30;;;;;;5052995;28;20222;-64
2023/12/08 02:49:09;;;;;;;4.00;3.70;;;15.60;52.40;;;;;;5052520;28;20171;-64
2023/12/08 02:51:35;;;;;;;3.95;3.55;;;15.60;52.40;;;;;;5052585;28;20167;-65
2023/12/08 02:54:00;;;;;;;4.20;3.80;;;15.60;52.40;;;;;;5052712;28;20227;-64
2023/12/08 02:56:26;;;;;;;3.72;3.42;;;15.50;52.30;;;;;;5052012;28;20171;-64
2023/12/08 02:58:51;;;;;;;4.25;3.85;;;15.50;52.30;;;;;;5052953;28;20175;-63
2023/12/08 03:01:17;;;;;;;3.75;3.45;;;15.50;52.40;;;;;;5052454;28;20183;-64
2023/12/08 03:03:42;;;;;;;3.63;3.33;;;15.50;52.40;;;;;;5052063;28;20178;-64
2023/12/08 03:06:08;;;;;;;3.60;3.30;;;15.50;52.40;;;;;;5052872;28;20193;-64
2023/12/08 03:08:33;;;;;;;3.72;3.42;;;15.50;52.50;;;;;;5052236;28;20298;-64
2023/12/08 03:10:59;;;;;;;3.85;3.55;;;15.50;52.40;;;;;;5052152;28;20174;-64
2023/12/08 03:13:24;;;;;;;3.75;3.45;;;15.50;52.40;;;;;;5052431;28;20182;-64
2023/12/08 03:15:50;;;;;;;3.75;3.45;;;15.50;52.40;;;;;;5052755;28;20179;-64
2023/12/08 03:18:15;;;;;;;4.38;3.97;;;15.50;52.50;;;;;;5051512;28;20658;-64
2023/12/08 03:20:41;;;;;;;4.10;3.58;;;15.50;52.50;;;;;;5052244;28;20262;-63
2023/12/08 03:23:06;;;;;;;4.00;3.65;;;15.40;52.40;;;;;;5052664;28;20182;-63
2023/12/08 03:25:32;;;;;;;4.35;3.95;;;15.50;52.50;;;;;;5051651;28;20175;-64
2023/12/08 03:27:57;;;;;;;4.75;3.97;;;15.50;52.50;;;;;;5052302;28;20621;-64
2023/12/08 03:30:23;;;;;;;3.70;3.42;;;15.50;52.50;;;;;;5060002;28;20181;-64
2023/12/08 03:32:49;;;;;;;3.90;3.50;;;15.40;52.40;;;;;;5071593;28;20185;-64
2023/12/08 03:35:14;;;;;;;4.20;3.88;;;15.40;52.40;;;;;;5071862;28;20256;-64
2023/12/08 03:37:40;;;;;;;4.03;3.63;;;15.40;52.50;;;;;;5072055;28;20170;-64
2023/12/08 03:40:06;;;;;;;3.47;3.17;;;15.40;52.50;;;;;;5070495;28;20258;-64
2023/12/08 03:42:36;;;;;;;3.40;3.20;;;15.40;52.60;;;;;;5071956;28;20182;-64
2023/12/08 03:45:05;;;;;;;3.95;3.58;;;15.40;52.50;;;;;;5072356;28;20190;-64
2023/12/08 03:47:30;;;;;;;3.92;3.47;;;15.40;52.60;;;;;;5071154;28;20234;-64
2023/12/08 03:49:56;;;;;;;4.25;3.85;;;15.40;52.50;;;;;;5072050;28;20199;-64
2023/12/08 03:52:21;;;;;;;4.32;3.85;;;15.40;52.50;;;;;;5071303;28;20246;-64
2023/12/08 03:54:47;;;;;;;4.75;3.40;;;15.30;52.50;;;;;;5071613;28;20236;-64
2023/12/08 03:57:12;;;;;;;4.50;4.10;;;15.40;52.60;;;;;;5072136;28;20174;-64
2023/12/08 03:59:38;;;;;;;3.67;3.38;;;15.40;52.60;;;;;;5071242;28;20189;-63
2023/12/08 04:02:04;;;;;;;3.85;3.55;;;15.30;52.60;;;;;;5071973;28;20185;-64
2023/12/08 04:04:29;;;;;;;4.13;3.72;;;15.30;52.60;;;;;;5071794;28;20517;-64
2023/12/08 04:06:56;;;;;;;3.63;3.33;;;15.30;52.60;;;;;;5071367;28;20297;-64
2023/12/08 04:09:21;;;;;;;4.22;3.83;;;15.30;52.60;;;;;;5071759;28;20178;-64
2023/12/08 04:11:47;;;;;;;4.20;3.80;;;15.30;52.60;;;;;;5071943;28;20542;-64
2023/12/08 04:14:12;;;;;;;3.85;3.55;;;15.30;52.60;;;;;;5071202;28;20247;-64
2023/12/08 04:16:38;;;;;;;3.70;3.40;;;15.30;52.60;;;;;;5071525;28;20652;-63
2023/12/08 04:19:03;;;;;;;4.25;3.85;;;15.30;52.60;;;;;;5071730;28;20182;-63
2023/12/08 04:21:29;;;;;;;3.47;3.17;;;15.30;52.60;;;;;;5071001;28;20170;-64
2023/12/08 04:23:54;;;;;;;3.88;3.58;;;15.30;52.60;;;;;;5071957;28;20604;-63
2023/12/08 04:26:24;;;;;;;4.07;3.78;;;15.30;52.60;;;;;;5071285;28;20170;-64
2023/12/08 04:28:51;;;;;;;4.10;3.70;;;15.30;52.60;;;;;;5070978;28;20612;-63
2023/12/08 04:31:17;;;;;;;4.05;3.75;;;15.30;52.60;;;;;;5055890;28;20171;-64
2023/12/08 04:33:42;;;;;;;3.90;3.60;;;15.20;52.60;;;;;;5051582;28;20317;-64
2023/12/08 04:36:08;;;;;;;3.45;3.15;;;15.30;52.70;;;;;;5051126;28;20257;-64
2023/12/08 04:38:34;;;;;;;3.88;3.58;;;15.20;52.60;;;;;;5051204;28;20893;-63
2023/12/08 04:40:59;;;;;;;4.30;3.90;;;15.20;52.70;;;;;;5051636;28;20186;-64
2023/12/08 04:43:25;;;;;;;3.70;3.40;;;15.20;52.60;;;;;;5050609;28;20186;-64
2023/12/08 04:45:50;;;;;;;3.72;3.42;;;15.30;53.00;;;;;;5051561;28;20186;-65
2023/12/08 04:48:16;;;;;;;3.88;3.58;;;15.20;52.60;;;;;;5051022;28;20207;-65
2023/12/08 04:50:41;;;;;;;4.90;4.50;;;15.20;52.70;;;;;;5050717;28;20175;-65
2023/12/08 04:53:07;;;;;;;4.05;3.75;;;15.20;52.60;;;;;;5051415;28;20235;-64
2023/12/08 04:55:32;;;;;;;4.25;3.95;;;15.20;52.70;;;;;;5051004;28;20183;-64
2023/12/08 04:57:58;;;;;;;3.83;3.53;;;15.20;52.70;;;;;;5050547;28;20179;-64
2023/12/08 05:00:23;;;;;;;4.22;3.92;;;15.20;52.70;;;;;;5051083;28;20177;-64
2023/12/08 05:02:49;;;;;;;3.70;3.40;;;15.20;52.70;;;;;;5050670;28;20175;-64
2023/12/08 05:05:15;;;;;;;3.47;3.20;;;15.20;52.70;;;;;;5053626;28;20269;-63
2023/12/08 05:07:41;;;;;;;4.38;3.97;;;15.20;52.70;;;;;;5055338;28;20218;-64
2023/12/08 05:10:07;;;;;;;4.00;3.70;;;15.10;52.70;;;;;;5054477;28;20236;-64
2023/12/08 05:12:32;;;;;;;4.10;3.80;;;15.10;52.70;;;;;;5054536;28;20233;-64
2023/12/08 05:14:58;;;;;;;4.40;3.85;;;15.10;52.60;;;;;;5054855;28;20185;-65
2023/12/08 05:17:23;;;;;;;4.15;3.80;;;15.10;52.80;;;;;;5053674;28;20270;-64
2023/12/08 05:19:49;;;;;;;4.13;3.72;;;15.10;52.70;;;;;;5054984;28;20270;-64
2023/12/08 05:22:14;;;;;;;3.88;3.58;;;15.10;52.70;;;;;;5054631;28;20258;-64
2023/12/08 05:24:40;;;;;;;3.97;3.60;;;15.10;52.80;;;;;;5054185;28;20167;-64
2023/12/08 05:27:05;;;;;;;4.25;3.85;;;15.10;52.80;;;;;;5054656;28;20209;-64
2023/12/08 05:29:31;;;;;;;4.57;4.18;;;15.10;52.80;;;;;;5054985;28;20168;-64
2023/12/08 05:31:56;;;;;;;4.00;3.65;;;15.10;52.80;;;;;;5073844;28;20186;-64
2023/12/08 05:34:22;;;;;;;4.53;4.13;;;15.10;52.80;;;;;;5074196;28;20691;-64
2023/12/08 05:36:47;;;;;;;4.22;3.83;;;15.10;52.80;;;;;;5074407;28;20174;-64
2023/12/08 05:39:14;;;;;;;3.97;3.67;;;15.10;52.80;;;;;;5073852;28;20178;-64
2023/12/08 05:41:40;;;;;;;4.25;3.78;;;15.10;52.90;;;;;;5074432;28;20182;-64
2023/12/08 05:44:05;;;;;;;4.22;3.83;;;15.00;52.80;;;;;;5074330;28;20182;-65
2023/12/08 05:46:31;;;;;;;4.35;3.72;;;15.10;52.80;;;;;;5073205;28;20175;-64
2023/12/08 05:48:56;;;;;;;4.20;3.80;;;15.00;52.70;;;;;;5074487;28;20182;-65
2023/12/08 05:51:22;;;;;;;4.45;4.05;;;15.00;52.80;;;;;;5074132;28;20530;-65
2023/12/08 05:53:47;;;;;;;4.38;3.97;;;15.00;52.80;;;;;;5073307;28;20626;-64
2023/12/08 05:56:13;;;;;;;4.57;3.70;;;15.00;52.80;;;;;;5074085;28;20683;-64
2023/12/08 05:58:38;;;;;;;3.85;3.55;;;15.00;52.90;;;;;;5074015;28;20192;-64
2023/12/08 06:01:04;;;;;;;4.47;4.07;;;15.00;52.80;;;;;;5073172;28;20186;-63
2023/12/08 06:03:30;;;;;;;4.47;4.07;;;15.00;52.80;;;;;;5073851;28;20182;-64
2023/12/08 06:05:55;;;;;;;4.00;3.60;;;15.00;52.90;;;;;;5074123;28;20178;-64
2023/12/08 06:08:24;;;;;;;4.22;3.83;;;15.00;53.00;;;;;;5072746;28;20754;-64
2023/12/08 06:10:49;;;;;;;3.70;3.40;;;15.00;53.00;;;;;;5073842;28;20174;-64
2023/12/08 06:13:15;;;;;;;4.45;4.07;;;15.10;53.10;;;;;;5072711;28;20182;-64
2023/12/08 06:15:41;;;;;;;3.90;3.60;;;15.10;52.90;;;;;;5073140;28;20171;-63
2023/12/08 06:18:07;;;;;;;3.88;3.50;;;15.10;52.80;;;;;;5073488;28;20307;-64
2023/12/08 06:20:32;;;;;;;4.07;3.78;;;15.10;52.80;;;;;;5072698;28;20178;-64
2023/12/08 06:22:58;;;;;;;4.18;3.78;;;15.10;52.80;;;;;;5073683;28;20189;-63
2023/12/08 06:25:23;;;;;;;4.03;3.72;;;15.10;52.80;;;;;;5073276;28;20171;-64
2023/12/08 06:27:49;;;;;;;5.10;4.00;;;15.10;52.80;;;;;;5072622;28;20213;-63
2023/12/08 06:30:14;;;;;;;4.40;4.00;;;15.10;52.90;;;;;;5066320;28;20278;-65
2023/12/08 06:32:40;;;;;;;4.68;4.28;;;15.10;52.80;;;;;;5053289;28;20646;-64
2023/12/08 06:35:06;;;;;;;3.92;3.53;;;15.00;52.80;;;;;;5052683;28;20788;-64
2023/12/08 06:37:32;;;;;;;4.63;4.22;;;15.10;53.00;;;;;;5053140;28;20195;-64
2023/12/08 06:39:57;;;;;;;4.70;4.00;;;15.10;52.90;;;;;;5053217;28;20182;-63
2023/12/08 06:42:23;;;;;;;4.65;4.25;;;15.00;52.90;;;;;;5052307;28;20174;-64
2023/12/08 06:44:48;;;;;;;4.05;3.75;;;15.00;52.80;;;;;;5053236;28;20186;-64
2023/12/08 06:47:14;;;;;;;4.00;3.60;;;15.00;53.00;;;;;;5053030;28;20564;-64
2023/12/08 06:49:39;;;;;;;3.80;3.50;;;15.00;53.00;;;;;;5052625;28;20190;-65
2023/12/08 06:52:05;;;;;;;4.03;3.63;;;15.00;52.90;;;;;;5052834;28;20556;-64
2023/12/08 06:54:31;;;;;;;3.78;3.40;;;15.10;53.10;;;;;;5052740;28;20285;-64
2023/12/08 06:56:56;;;;;;;3.70;3.40;;;15.10;53.00;;;;;;5052265;28;20167;-64
2023/12/08 06:59:25;;;;;;;4.47;3.80;;;15.10;53.00;;;;;;5052608;28;20171;-64
2023/12/08 07:01:50;;;;;;;3.72;3.42;;;15.50;53.10;;;;;;5052688;28;20261;-64
2023/12/08 07:04:16;;;;;;;4.07;3.67;;;15.10;52.90;;;;;;5051853;28;20642;-64
2023/12/08 07:06:42;;;;;;;4.07;3.75;;;15.10;52.90;;;;;;5052608;28;20285;-64
2023/12/08 07:09:09;;;;;;;3.58;3.28;;;15.20;53.00;;;;;;5052689;28;20261;-64
2023/12/08 07:11:34;;;;;;;3.85;3.55;;;15.20;53.00;;;;;;5051871;28;20209;-64
2023/12/08 07:14:00;;;;;;;3.42;3.13;;;15.20;53.10;;;;;;5052524;28;20182;-64
2023/12/08 07:16:26;;;;;;;3.28;3.03;;;15.30;53.20;;;;;;5051494;28;20183;-64
2023/12/08 07:18:52;;;;;;;3.42;3.13;;;15.40;53.20;;;;;;5052661;28;20183;-63
2023/12/08 07:21:17;;;;;;;2.95;2.75;;;15.50;53.20;;;;;;5051997;28;20668;-64
2023/12/08 07:23:43;;;;;;;3.80;3.38;;;15.60;53.00;;;;;;5051610;28;20221;-63
2023/12/08 07:26:10;;;;;;;3.40;3.10;;;15.80;52.70;;;;;;5051898;28;20172;-64
2023/12/08 07:28:36;;;;;;;3.17;2.88;;;16.00;52.50;;;;;;5051751;28;20214;-64
2023/12/08 07:31:01;;;;;;;2.97;2.78;;;16.20;52.30;;;;;;5064727;28;20236;-64
2023/12/08 07:33:27;;;;;;;3.03;2.83;;;16.40;52.00;;;;;;5072076;28;20178;-64
2023/12/08 07:35:52;;;;;;;3.55;3.03;;;16.50;51.70;;;;;;5072266;28;20257;-63
2023/12/08 07:38:18;;;;;;;3.40;3.10;;;16.60;51.60;;;;;;5071092;28;20236;-64
2023/12/08 07:40:45;;;;;;;3.15;2.80;;;16.70;51.50;;;;;;5072156;28;20221;-64
2023/12/08 07:43:11;;;;;;;2.92;2.72;;;16.70;51.50;;;;;;5072169;28;20178;-64
2023/12/08 07:45:36;;;;;;;3.53;3.22;;;16.80;51.60;;;;;;5071384;28;20176;-64
2023/12/08 07:48:02;;;;;;;3.15;2.90;;;16.80;51.50;;;;;;5072221;28;20305;-65
2023/12/08 07:50:27;;;;;;;3.03;2.75;;;16.80;51.40;;;;;;5071832;28;20253;-64
2023/12/08 07:52:53;;;;;;;2.65;2.45;;;16.90;51.40;;;;;;5071269;28;20233;-65
2023/12/08 07:55:19;;;;;;;3.33;3.03;;;16.80;51.40;;;;;;5071703;28;20179;-64
2023/12/08 07:57:44;;;;;;;3.42;2.78;;;16.90;51.50;;;;;;5071926;28;20235;-64
2023/12/08 08:00:10;;;;;;;3.20;2.90;;;16.90;51.50;;;;;;5071528;28;20655;-63
2023/12/08 08:02:37;;;;;;;3.25;2.95;;;16.90;51.50;;;;;;5071938;28;20179;-63
2023/12/08 08:05:03;;;;;;;3.05;2.80;;;16.90;51.50;;;;;;5072218;28;20182;-64
2023/12/08 08:07:28;;;;;;;2.92;2.72;;;16.90;51.50;;;;;;5070931;28;20347;-64
2023/12/08 08:09:54;;;;;;;3.10;2.80;;;16.90;51.40;;;;;;5071937;28;20257;-64
2023/12/08 08:12:20;;;;;;;3.35;2.35;;;17.00;51.50;;;;;;5071510;28;20215;-64
2023/12/08 08:14:46;;;;;;;3.55;2.80;;;16.90;51.50;;;;;;5071179;28;20182;-64
2023/12/08 08:17:11;;;;;;;2.83;2.63;;;16.80;51.60;;;;;;5072076;28;20189;-64
2023/12/08 08:19:37;;;;;;;3.10;2.80;;;16.80;51.60;;;;;;5071536;28;20190;-63
2023/12/08 08:22:02;;;;;;;3.22;3.03;;;16.80;51.60;;;;;;5071239;28;20174;-64
2023/12/08 08:24:28;;;;;;;2.55;2.35;;;16.90;51.70;;;;;;5071514;28;20174;-64
2023/12/08 08:26:54;;;;;;;2.63;2.42;;;16.90;51.70;;;;;;5070974;28;20214;-63
2023/12/08 08:29:20;;;;;;;2.75;2.55;;;16.90;51.80;;;;;;5071411;28;20174;-64
2023/12/08 08:31:45;;;;;;;2.90;2.70;;;16.90;51.80;;;;;;5052513;28;20255;-64
2023/12/08 08:34:11;;;;;;;3.08;2.63;;;16.90;51.80;;;;;;5051216;28;20632;-64
2023/12/08 08:36:36;;;;;;;2.90;2.60;;;16.90;51.70;;;;;;5051403;28;20175;-64
2023/12/08 08:39:03;;;;;;;3.03;2.83;;;17.00;51.70;;;;;;5054132;28;20167;-63
2023/12/08 08:41:28;;;;;;;3.05;2.75;;;17.00;51.80;;;;;;5054588;28;20183;-65
2023/12/08 08:43:54;;;;;;;2.78;2.58;;;17.00;51.70;;;;;;5055362;28;21011;-64
2023/12/08 08:46:20;;;;;;;3.35;3.05;;;17.00;51.70;;;;;;5055496;28;20224;-65
2023/12/08 08:48:45;;;;;;;3.22;2.92;;;17.00;51.80;;;;;;5054847;28;20214;-65
2023/12/08 08:51:11;;;;;;;3.55;2.95;;;16.90;51.70;;;;;;5055608;28;20175;-64
2023/12/08 08:53:37;;;;;;;3.33;3.03;;;17.00;51.80;;;;;;5055063;28;20272;-65
2023/12/08 08:56:03;;;;;;;2.95;2.60;;;17.00;51.70;;;;;;5054597;28;20168;-64
2023/12/08 08:58:29;;;;;;;3.00;2.75;;;17.00;51.70;;;;;;5054960;28;20179;-64
2023/12/08 09:00:54;;;;;;;3.60;2.72;;;17.00;51.70;;;;;;5055475;28;20172;-64
2023/12/08 09:03:20;;;;;;;2.72;2.53;;;17.00;51.70;;;;;;5054383;28;20210;-64
2023/12/08 09:05:45;;;;;;;2.58;2.38;;;17.00;51.80;;;;;;5055213;28;20199;-65
2023/12/08 09:08:11;;;;;;;3.17;2.88;;;17.10;51.70;;;;;;5055041;28;20227;-65
2023/12/08 09:10:37;;;;;;;3.67;3.03;;;17.10;51.70;;;;;;5054074;28;20217;-65
2023/12/08 09:13:03;;;;;;;3.08;2.88;;;17.10;51.70;;;;;;5054996;28;20179;-66
2023/12/08 09:15:28;;;;;;;3.20;2.90;;;17.10;51.70;;;;;;5054823;28;20177;-64
2023/12/08 09:17:55;;;;;;;2.80;2.60;;;17.00;51.70;;;;;;5054041;28;20261;-65
2023/12/08 09:20:20;;;;;;;3.75;2.45;;;17.00;51.80;;;;;;5054728;28;20213;-64
2023/12/08 09:22:46;;;;;;;2.90;2.67;;;17.00;51.80;;;;;;5054776;28;20211;-64
2023/12/08 09:25:11;;;;;;;3.13;2.83;;;17.00;51.90;;;;;;5054094;28;20171;-64
2023/12/08 09:27:37;;;;;;;3.03;2.72;;;17.00;51.90;;;;;;5054239;28;20215;-64
2023/12/08 09:30:03;;;;;;;2.60;2.40;;;17.00;51.80;;;;;;5059135;28;20173;-64
2023/12/08 09:32:28;;;;;;;2.72;2.53;;;17.10;51.90;;;;;;5074356;28;20182;-65
2023/12/08 09:34:54;;;;;;;2.95;2.65;;;17.10;51.90;;;;;;5074799;28;20181;-63
2023/12/08 09:37:19;;;;;;;3.38;2.90;;;17.00;51.80;;;;;;5073558;28;20202;-64
2023/12/08 09:39:45;;;;;;;2.60;2.40;;;17.10;51.90;;;;;;5074480;28;20254;-64
2023/12/08 09:42:22;;;;;;;3.10;2.47;;;17.00;51.90;;;;;;5074465;28;20611;-64
2023/12/08 09:44:48;;;;;;;3.30;2.95;;;16.90;52.00;;;;;;5072751;28;20185;-65
2023/12/08 09:47:14;;;;;;;3.25;2.95;;;16.90;52.10;;;;;;5072867;28;20309;-65
2023/12/08 09:49:42;;;;;;;3.25;2.78;;;16.80;52.10;;;;;;5055962;28;20680;-65
2023/12/08 09:52:08;;;;;;;3.78;3.33;;;16.80;52.30;;;;;;5072243;28;20217;-64
2023/12/08 09:54:33;;;;;;;3.22;2.88;;;16.80;52.30;;;;;;5072709;28;20205;-64
2023/12/08 09:56:59;;;;;;;3.00;2.70;;;16.80;52.50;;;;;;5073208;28;20177;-63
2023/12/08 09:59:27;;;;;;;3.20;2.90;;;16.70;52.40;;;;;;5072058;28;20170;-63
2023/12/08 10:01:53;;;;;;;3.28;2.97;;;16.70;52.50;;;;;;5074200;28;20186;-63
2023/12/08 10:04:19;;;;;;;2.65;2.45;;;16.70;52.50;;;;;;5074054;28;20618;-64
2023/12/08 10:06:44;;;;;;;3.30;2.92;;;16.60;52.40;;;;;;5073164;28;20716;-64
2023/12/08 10:09:11;;;;;;;3.28;2.90;;;16.60;52.60;;;;;;5073908;28;20261;-65
2023/12/08 10:11:38;;;;;;;2.90;2.70;;;16.50;52.60;;;;;;5073833;28;20182;-64
2023/12/08 10:14:03;;;;;;;3.97;3.38;;;16.50;52.70;;;;;;5072213;28;20178;-64
2023/12/08 10:16:29;;;;;;;3.58;3.20;;;16.50;52.70;;;;;;5072238;28;20251;-64
2023/12/08 10:19:07;;;;;;;3.42;3.10;;;16.50;52.80;;;;;;5073979;28;20308;-63
2023/12/08 10:21:34;;;;;;;3.40;3.08;;;16.50;52.90;;;;;;5072639;28;20174;-63
2023/12/08 10:24:00;;;;;;;3.10;2.80;;;16.50;52.80;;;;;;5073887;28;20266;-63
2023/12/08 10:26:26;;;;;;;3.75;3.28;;;16.40;52.80;;;;;;5072870;28;20185;-64
2023/12/08 10:28:54;;;;;;;3.03;2.72;;;16.40;52.80;;;;;;5072460;28;20190;-64
2023/12/08 10:31:21;;;;;;;3.20;2.90;;;16.50;52.90;;;;;;5056245;28;20171;-64
2023/12/08 10:33:48;;;;;;;4.65;3.30;;;16.40;52.80;;;;;;5053104;28;20191;-64
2023/12/08 10:36:13;;;;;;;3.33;2.70;;;16.40;52.90;;;;;;5053003;28;20182;-64
2023/12/08 10:38:39;;;;;;;3.53;3.22;;;16.40;53.00;;;;;;5052336;28;20171;-64
2023/12/08 10:41:05;;;;;;;3.50;3.20;;;16.30;53.00;;;;;;5052591;28;20179;-64
2023/12/08 10:43:30;;;;;;;3.83;3.10;;;16.30;53.00;;;;;;5052003;28;20254;-64
2023/12/08 10:45:56;;;;;;;3.20;2.90;;;16.30;53.10;;;;;;5053322;28;20614;-64
2023/12/08 10:48:22;;;;;;;3.55;3.25;;;16.30;53.20;;;;;;5052152;28;20207;-65
2023/12/08 10:50:49;;;;;;;4.25;3.40;;;16.30;53.20;;;;;;5053056;28;20187;-64
2023/12/08 10:53:17;;;;;;;4.05;3.65;;;16.30;53.10;;;;;;5051673;28;20317;-64
2023/12/08 10:55:42;;;;;;;3.53;3.22;;;16.30;53.10;;;;;;5052442;28;20199;-64
2023/12/08 10:58:09;;;;;;;3.75;3.08;;;16.30;53.10;;;;;;5053223;28;20672;-64
2023/12/08 11:00:35;;;;;;;4.13;3.13;;;16.30;53.20;;;;;;5035062;28;20182;-63
2023/12/08 11:03:01;;;;;;;3.55;3.08;;;16.30;53.20;;;;;;5050992;28;20170;-63
2023/12/08 11:05:37;;;;;;;3.45;3.15;;;16.20;53.20;;;;;;5034893;28;20573;-64
2023/12/08 11:08:05;;;;;;;5.30;3.90;;;16.20;53.30;;;;;;5051805;28;20223;-64
2023/12/08 11:10:33;;;;;;;4.07;3.67;;;16.20;53.30;;;;;;5051933;28;20226;-64
2023/12/08 11:13:26;;;;;;;3.95;3.50;;;16.20;53.40;;;;;;5051397;28;20248;-64
2023/12/08 11:16:00;;;;;;;4.60;3.90;;;16.20;53.40;;;;;;5049365;28;20197;-64
2023/12/08 11:18:30;;;;;;;4.32;3.67;;;16.20;53.50;;;;;;5052382;28;20213;-64
2023/12/08 11:20:56;;;;;;;5.03;3.55;;;16.20;53.50;;;;;;5035579;28;20171;-63
2023/12/08 11:23:22;;;;;;;3.72;3.38;;;16.20;53.50;;;;;;5051700;28;20710;-63
2023/12/08 11:26:12;;;;;;;4.95;4.22;;;16.20;53.40;;;;;;5034819;28;20571;-63
2023/12/08 11:29:02;;;;;;;3.97;3.55;;;16.20;53.40;;;;;;5050992;28;20215;-64
2023/12/08 11:31:46;;;;;;;5.35;4.07;;;16.20;53.50;;;;;;5068444;28;20178;-64
2023/12/08 11:34:22;;;;;;;4.22;3.83;;;16.20;53.50;;;;;;5072688;28;20245;-64
2023/12/08 11:36:48;;;;;;;4.45;3.95;;;16.20;53.50;;;;;;5070402;28;20516;-64
2023/12/08 11:39:40;;;;;;;4.47;4.03;;;16.10;53.50;;;;;;5054227;28;20232;-64
2023/12/08 11:42:13;;;;;;;4.75;3.90;;;16.10;53.60;;;;;;5072161;28;20664;-64
2023/12/08 11:44:41;;;;;;;4.10;3.65;;;16.10;53.70;;;;;;5071467;28;20265;-64
2023/12/08 11:47:11;;;;;;;6.00;4.40;;;16.10;53.60;;;;;;5072144;28;20214;-64
2023/12/08 11:49:38;;;;;;;5.95;4.18;;;16.20;53.60;;;;;;5071829;28;20653;-65
2023/12/08 11:52:18;;;;;;;4.95;4.32;;;16.10;53.60;;;;;;5071399;28;20190;-64
2023/12/08 11:55:24;;;;;;;5.35;4.40;;;16.20;53.60;;;;;;5072072;28;20544;-64
2023/12/08 11:58:01;;;;;;;5.40;4.55;;;16.20;53.60;;;;;;5070500;28;20177;-64
2023/12/08 12:00:27;;;;;;;5.22;4.43;;;16.20;53.60;;;;;;5071935;28;20175;-63
2023/12/08 12:02:54;;;;;;;5.13;4.50;;;16.10;53.50;;;;;;5071903;28;20645;-64
2023/12/08 12:05:20;;;;;;;5.38;4.88;;;16.10;53.60;;;;;;5071022;28;20632;-64
2023/12/08 12:07:50;;;;;;;8.43;5.18;;;16.10;53.70;;;;;;5071897;28;20233;-64
2023/12/08 12:10:21;;;;;;;6.70;4.45;;;16.10;53.80;;;;;;5071834;28;20174;-64
2023/12/08 12:12:53;;;;;;;5.38;4.43;;;16.10;53.80;;;;;;5071720;28;20257;-63
2023/12/08 12:15:19;;;;;;;5.30;4.80;;;16.10;53.80;;;;;;5078364;28;20206;-63
2023/12/08 12:17:44;;;;;;;6.53;4.88;;;16.10;53.80;;;;;;5078505;28;20197;-63
2023/12/08 12:20:11;;;;;;;6.50;5.40;;;16.20;53.80;;;;;;5077987;28;20174;-63
2023/12/08 12:22:38;;;;;;;6.88;5.30;;;16.20;53.70;;;;;;5078138;28;20174;-64
2023/12/08 12:25:04;;;;;;;5.70;4.82;;;16.20;53.60;;;;;;5078711;28;20201;-63
2023/12/08 12:27:30;;;;;;;5.95;5.00;;;16.20;53.60;;;;;;5077502;28;20300;-64
2023/12/08 12:29:56;;;;;;;6.47;5.10;;;16.20;53.70;;;;;;5074443;28;20175;-64
2023/12/08 12:32:22;;;;;;;6.40;5.00;;;16.20;53.60;;;;;;5058123;28;20190;-63
2023/12/08 12:34:47;;;;;;;8.60;5.68;;;16.20;53.70;;;;;;5057675;28;20183;-64
2023/12/08 12:37:13;;;;;;;6.88;5.60;;;16.20;53.70;;;;;;5058289;28;20181;-63
2023/12/08 12:39:39;;;;;;;6.63;5.55;;;16.20;53.80;;;;;;5058382;28;20198;-64
2023/12/08 12:42:05;;;;;;;6.00;5.20;;;16.10;53.80;;;;;;5057736;28;20512;-64
2023/12/08 12:44:44;;;;;;;6.68;5.60;;;16.20;53.90;;;;;;5058144;28;20171;-64